.
WxDataArchive / Data Records for 2011-05-22
2011-05-21 May 2011 2011-05-23

Data Records for Sunday, 22 May 2011

Time	Temp	Chill	HIndex	Humid	Dewpt	 Wind 	HiWind	WindDir	Rain 	Barom 
-----	----	-----	------	-----	-----	------	------	-------	-----	----- 
00:00	66.1	66.1	66.1	88	62.4	0	0	---	0.00	29.873 
00:05	66.0	66.0	66.0	88	62.3	0	0	---	0.00	29.873 
00:10	65.8	65.8	65.8	88	62.1	0	0	---	0.00	29.873 
00:15	65.6	65.6	65.6	88	61.9	0	0	---	0.00	29.863 
00:20	65.5	65.5	65.5	89	62.2	0	0	---	0.00	29.863 
00:25	65.2	65.2	65.2	89	61.9	0	0	---	0.00	29.863 
00:30	65.0	65.0	65.0	89	61.7	0	0	---	0.00	29.860 
00:35	64.8	64.8	64.8	90	61.8	0	0	---	0.00	29.860 
00:40	64.7	64.7	64.7	90	61.7	0	0	---	0.00	29.860 
00:45	64.3	64.3	64.3	90	61.3	0	0	---	0.00	29.858 
00:50	64.2	64.2	64.2	90	61.2	0	0	---	0.00	29.858 
00:55	64.0	64.0	64.0	90	61.0	0	0	---	0.00	29.858 
01:00	63.7	63.7	63.7	91	61.0	0	0	---	0.00	29.857 
01:05	63.7	63.7	63.7	91	61.0	0	0	---	0.00	29.857 
01:10	63.5	63.5	63.5	92	61.1	0	0	---	0.00	29.857 
01:15	63.5	63.5	63.5	92	61.1	0	0	---	0.00	29.857 
01:20	63.4	63.4	63.4	92	61.0	0	0	---	0.00	29.857 
01:25	63.2	63.2	63.2	92	60.8	0	0	---	0.00	29.857 
01:30	63.1	63.1	63.1	92	60.7	0	0	---	0.00	29.855 
01:35	62.9	62.9	62.9	92	60.5	0	0	---	0.00	29.855 
01:40	62.7	62.7	62.7	92	60.3	0	0	---	0.00	29.855 
01:45	62.6	62.6	62.6	92	60.2	0	0	---	0.00	29.856 
01:50	62.4	62.4	62.4	92	60.0	0	0	---	0.00	29.856 
01:55	62.3	62.3	62.3	92	59.9	0	0	---	0.00	29.856 
02:00	62.3	62.3	62.3	92	59.9	0	0	---	0.00	29.861 
02:05	62.3	62.3	62.3	93	60.2	0	0	---	0.00	29.861 
02:10	62.1	62.1	62.1	93	60.0	0	0	---	0.00	29.861 
02:15	62.1	62.1	62.1	93	60.0	0	0	---	0.00	29.863 
02:20	62.1	62.1	62.1	93	60.0	0	0	---	0.00	29.863 
02:25	62.0	62.0	62.0	93	59.9	0	0	---	0.00	29.863 
02:30	62.1	62.1	62.1	93	60.0	0	0	---	0.00	29.865 
02:35	62.3	62.3	62.3	94	60.5	0	0	---	0.00	29.865 
02:40	62.3	62.3	62.3	94	60.5	0	0	---	0.00	29.865 
02:45	62.3	62.3	62.3	94	60.5	0	0	---	0.00	29.862 
02:50	62.1	62.1	62.1	94	60.3	0	0	---	0.00	29.862 
02:55	62.1	62.1	62.1	94	60.3	0	0	---	0.00	29.862 
03:00	62.3	62.3	62.3	94	60.5	0	0	---	0.00	29.861 
03:05	62.1	62.1	62.1	94	60.3	0	0	---	0.00	29.861 
03:10	62.1	62.1	62.1	94	60.3	0	0	---	0.00	29.861 
03:15	62.1	62.1	62.1	94	60.3	0	0	---	0.00	29.861 
03:20	62.0	62.0	62.0	94	60.2	0	0	---	0.00	29.861 
03:25	62.0	62.0	62.0	94	60.2	0	0	---	0.00	29.861 
03:30	61.8	61.8	61.8	94	60.1	0	0	---	0.00	29.859 
03:35	61.8	61.8	61.8	94	60.1	0	0	---	0.00	29.859 
03:40	61.6	61.6	61.6	94	59.9	0	0	---	0.00	29.859 
03:45	61.6	61.6	61.6	95	60.2	0	0	---	0.00	29.855 
03:50	61.5	61.5	61.5	95	60.1	0	0	---	0.00	29.855 
03:55	61.6	61.6	61.6	95	60.2	0	0	---	0.00	29.855 
04:00	61.5	61.5	61.5	95	60.1	0	0	---	0.00	29.849 
04:05	61.3	61.3	61.3	95	59.9	0	0	---	0.00	29.849 
04:10	61.3	61.3	61.3	95	59.9	0	0	---	0.00	29.849 
04:15	61.3	61.3	61.3	95	59.9	0	0	---	0.00	29.852 
04:20	61.3	61.3	61.3	95	59.9	0	0	---	0.00	29.852 
04:25	61.5	61.5	61.5	95	60.1	0	0	---	0.00	29.852 
04:30	61.5	61.5	61.5	95	60.1	0	0	---	0.00	29.853 
04:35	61.5	61.5	61.5	95	60.1	0	0	---	0.00	29.853 
04:40	61.6	61.6	61.6	95	60.2	0	0	---	0.00	29.853 
04:45	61.8	61.8	61.8	95	60.3	0	0	---	0.00	29.856 
04:50	62.0	62.0	62.0	96	60.8	0	0	---	0.00	29.856 
04:55	62.1	62.1	62.1	96	60.9	0	0	---	0.00	29.856 
05:00	62.1	62.1	62.1	96	60.9	0	0	---	0.00	29.852 
05:05	62.3	62.3	62.3	96	61.1	0	0	---	0.00	29.852 
05:10	62.4	62.4	62.4	96	61.2	0	0	---	0.00	29.852 
05:15	62.3	62.3	62.3	96	61.1	0	0	---	0.00	29.853 
05:20	62.4	62.4	62.4	96	61.2	0	0	---	0.00	29.853 
05:25	62.4	62.4	62.4	96	61.2	0	0	---	0.00	29.853 
05:30	62.4	62.4	62.4	96	61.2	0	0	---	0.00	29.857 
05:35	62.7	62.7	62.7	96	61.5	0	0	---	0.00	29.857 
05:40	62.9	62.9	62.9	96	61.7	0	1	90	0.00	29.857 
05:45	63.1	63.1	63.1	96	61.9	0	0	---	0.00	29.864 
05:50	63.2	63.2	63.2	96	62.0	0	0	---	0.00	29.864 
05:55	63.4	63.4	63.4	96	62.2	0	1	90	0.00	29.864 
06:00	63.5	63.5	63.5	96	62.3	0	2	90	0.00	29.865 
06:05	63.7	63.7	63.7	96	62.5	0	2	225	0.00	29.865 
06:10	63.9	63.9	63.9	96	62.7	0	2	225	0.00	29.865 
06:15	63.9	63.9	63.9	96	62.7	0	1	225	0.00	29.871 
06:20	64.0	64.0	64.0	96	62.8	0	2	225	0.00	29.871 
06:25	64.2	64.2	64.2	96	63.0	0	2	292	0.00	29.871 
06:30	64.2	64.2	64.2	96	63.0	0	1	292	0.00	29.874 
06:35	64.2	64.2	64.2	96	63.0	0	1	292	0.00	29.874 
06:40	64.2	64.2	64.2	96	63.0	0	1	292	0.00	29.874 
06:45	64.2	64.2	64.2	96	63.0	0	1	292	0.00	29.882 
06:50	64.3	64.3	64.3	96	63.1	0	2	292	0.00	29.882 
06:55	64.3	64.3	64.3	96	63.1	0	1	292	0.00	29.882 
07:00	64.5	64.5	64.5	96	63.3	0	1	292	0.00	29.879 
07:05	64.5	64.5	64.5	96	63.3	0	1	292	0.00	29.879 
07:10	64.7	64.7	64.7	96	63.5	0	1	292	0.00	29.879 
07:15	64.7	64.7	64.7	96	63.5	0	1	292	0.00	29.880 
07:20	65.0	65.0	65.0	96	63.8	0	0	---	0.00	29.880 
07:25	65.2	65.2	65.2	96	64.0	0	0	---	0.00	29.880 
07:30	65.3	65.3	65.3	96	64.1	0	0	---	0.00	29.881 
07:35	65.6	65.6	65.6	95	64.1	0	2	292	0.00	29.881 
07:40	66.0	66.0	66.0	95	64.5	0	1	292	0.00	29.881 
07:45	66.3	66.3	66.3	95	64.8	0	1	292	0.00	29.881 
07:50	66.6	66.6	66.6	94	64.8	0	2	292	0.00	29.881 
07:55	66.9	66.9	66.9	94	65.1	0	2	292	0.00	29.881 
08:00	67.3	67.3	67.3	93	65.2	0	2	292	0.00	29.879 
08:05	67.8	67.8	67.8	92	65.4	0	1	292	0.00	29.879 
08:10	68.4	68.4	68.4	91	65.7	0	0	---	0.00	29.879 
08:15	69.1	69.1	69.1	89	65.7	0	1	292	0.00	29.876 
08:20	69.8	69.8	69.8	87	65.7	0	1	292	0.00	29.876 
08:25	70.3	70.3	70.3	85	65.6	0	1	292	0.00	29.876 
08:30	70.8	70.8	70.8	84	65.7	0	2	90	0.00	29.879 
08:35	70.4	70.4	70.4	82	64.6	1	4	270	0.00	29.879 
08:40	70.4	70.4	70.4	83	65.0	2	4	270	0.00	29.879 
08:45	70.6	70.6	70.6	83	65.2	1	3	270	0.00	29.893 
08:50	70.8	70.8	70.8	83	65.4	1	3	270	0.00	29.893 
08:55	71.1	71.1	71.1	82	65.3	1	3	270	0.00	29.893 
09:00	71.1	71.1	71.1	81	65.0	2	4	270	0.00	29.889 
09:05	71.3	71.3	71.3	81	65.2	2	4	292	0.00	29.889 
09:10	71.5	71.5	71.5	81	65.4	1	4	292	0.00	29.889 
09:15	71.8	71.8	71.8	81	65.6	1	4	270	0.00	29.887 
09:20	72.1	72.1	72.1	80	65.6	1	5	292	0.00	29.887 
09:25	72.3	72.3	72.3	79	65.4	1	3	270	0.00	29.887 
09:30	72.5	72.5	72.5	79	65.6	1	5	270	0.00	29.885 
09:35	72.5	72.5	72.5	79	65.6	1	4	270	0.00	29.885 
09:40	72.7	72.7	72.7	78	65.4	1	4	270	0.00	29.885 
09:45	72.7	72.7	72.7	78	65.4	2	3	270	0.00	29.875 
09:50	73.0	73.0	73.0	78	65.7	2	3	270	0.00	29.875 
09:55	73.5	73.5	73.5	78	66.2	1	4	202	0.00	29.875 
10:00	73.5	73.5	73.5	78	66.2	0	3	202	0.00	29.873 
10:05	74.0	74.0	74.0	76	65.9	1	3	248	0.00	29.873 
10:10	74.0	74.0	74.0	76	65.9	1	3	68	0.00	29.873 
10:15	74.0	74.0	74.0	76	65.9	1	2	225	0.00	29.865 
10:20	74.4	74.4	74.4	77	66.7	0	2	225	0.00	29.865 
10:25	74.6	74.6	74.6	75	66.1	1	3	248	0.00	29.865 
10:30	74.7	74.7	74.7	75	66.2	1	3	248	0.00	29.860 
10:35	75.3	75.3	76.4	76	67.2	0	2	248	0.00	29.860 
10:40	76.0	76.0	77.4	74	67.1	0	3	68	0.00	29.860 
10:45	75.6	75.6	77.1	72	65.9	1	4	225	0.00	29.871 
10:50	75.6	75.6	77.0	74	66.7	1	3	270	0.00	29.871 
10:55	75.8	75.8	77.3	73	66.5	1	3	270	0.00	29.871 
11:00	75.8	75.8	77.3	73	66.5	1	3	270	0.00	29.871 
11:05	76.0	76.0	77.5	73	66.7	1	5	270	0.00	29.871 
11:10	76.1	76.1	77.6	73	66.8	2	5	292	0.00	29.871 
11:15	76.5	76.5	78.1	73	67.2	1	3	292	0.00	29.870 
11:20	77.2	77.2	79.0	72	67.5	1	5	112	0.00	29.870 
11:25	77.6	77.6	79.5	69	66.6	1	3	248	0.00	29.870 
11:30	77.6	77.6	79.5	69	66.6	1	3	248	0.00	29.858 
11:35	77.7	77.7	79.6	68	66.3	1	4	248	0.00	29.858 
11:40	77.9	77.9	79.9	69	66.9	1	4	248	0.00	29.858 
11:45	78.1	78.1	80.1	68	66.7	1	6	248	0.00	29.855 
11:50	78.3	78.3	80.3	68	66.8	1	3	292	0.00	29.855 
11:55	78.8	78.8	81.0	68	67.3	1	4	68	0.00	29.855 
12:00	79.4	79.4	81.7	67	67.5	1	4	270	0.00	29.842 
12:05	79.8	79.8	82.4	68	68.3	1	5	45	0.00	29.842 
12:10	79.4	79.4	81.5	64	66.1	1	3	270	0.00	29.842 
12:15	79.0	79.0	81.2	67	67.1	0	2	270	0.00	29.840 
12:20	79.4	79.4	81.9	69	68.3	0	2	270	0.00	29.840 
12:25	80.1	80.1	82.6	66	67.7	1	3	315	0.00	29.840 
12:30	80.3	80.3	83.0	67	68.3	2	4	45	0.00	29.837 
12:35	80.3	80.3	83.0	67	68.3	1	4	112	0.00	29.837 
12:40	80.3	80.3	82.8	65	67.4	1	4	270	0.00	29.837 
12:45	80.9	80.9	83.7	65	68.0	1	5	90	0.00	29.839 
12:50	81.1	81.1	84.1	66	68.6	1	5	90	0.00	29.839 
12:55	81.1	81.1	84.0	65	68.2	1	3	90	0.00	29.839 
13:00	80.7	80.7	83.5	66	68.3	1	4	270	0.00	29.832 
13:05	80.9	80.9	83.8	66	68.4	1	5	90	0.00	29.832 
13:10	81.1	81.1	84.0	65	68.2	1	3	270	0.00	29.832 
13:15	81.2	81.2	84.0	64	67.8	1	5	22	0.00	29.839 
13:20	81.6	81.6	84.6	64	68.2	1	4	90	0.00	29.839 
13:25	81.2	81.2	83.6	62	66.9	2	4	270	0.00	29.839 
13:30	81.1	81.1	83.8	64	67.7	1	4	270	0.00	29.843 
13:35	80.7	80.7	83.1	63	66.9	1	5	292	0.00	29.843 
13:40	80.3	80.3	82.7	64	67.0	1	4	112	0.00	29.843 
13:45	80.5	80.5	83.1	65	67.6	0	3	112	0.00	29.841 
13:50	80.9	80.9	83.2	62	66.6	2	6	248	0.00	29.841 
13:55	81.1	81.1	83.2	60	65.9	2	6	248	0.00	29.841 
14:00	81.6	81.6	83.9	60	66.3	2	5	270	0.00	29.835 
14:05	82.0	82.0	84.6	61	67.2	1	4	270	0.00	29.835 
14:10	82.6	82.6	85.7	62	68.2	1	3	270	0.00	29.835 
14:15	82.8	82.8	84.8	56	65.5	2	4	270	0.00	29.824 
14:20	83.2	83.2	85.1	55	65.3	2	6	270	0.00	29.824 
14:25	83.2	83.2	85.6	57	66.4	2	7	270	0.00	29.824 
14:30	83.2	83.2	84.9	54	64.8	3	9	248	0.00	29.821 
14:35	83.2	83.2	85.3	56	65.8	1	4	270	0.00	29.821 
14:40	83.0	83.0	84.7	54	64.6	1	4	270	0.00	29.821 
14:45	82.8	82.8	84.8	56	65.5	3	10	248	0.00	29.822 
14:50	81.8	81.8	83.8	58	65.6	2	5	248	0.00	29.822 
14:55	82.2	82.2	84.3	58	65.9	2	10	248	0.00	29.822 
15:00	82.2	82.2	84.5	59	66.4	3	9	270	0.00	29.811 
15:05	81.8	81.8	83.6	57	65.0	2	9	292	0.00	29.811 
15:10	81.8	81.8	84.0	59	66.0	2	6	270	0.00	29.811 
15:15	82.0	82.0	84.8	62	67.7	1	5	270	0.00	29.806 
15:20	82.4	82.4	85.2	61	67.6	2	5	270	0.00	29.806 
15:25	82.0	82.0	84.4	60	66.7	2	7	248	0.00	29.806 
15:30	82.2	82.2	84.3	58	65.9	3	7	248	0.00	29.801 
15:35	82.4	82.4	84.4	57	65.6	2	7	270	0.00	29.801 
15:40	82.8	82.8	84.2	53	63.9	3	7	270	0.00	29.801 
15:45	83.4	83.4	84.6	51	63.3	2	6	248	0.00	29.795 
15:50	83.4	83.4	84.4	50	62.8	3	7	248	0.00	29.795 
15:55	83.2	83.2	84.1	50	62.6	2	10	270	0.00	29.795 
16:00	83.0	83.0	84.7	54	64.6	2	8	270	0.00	29.782 
16:05	82.8	82.8	84.0	52	63.3	3	6	270	0.00	29.782 
16:10	83.2	83.2	85.1	55	65.3	2	5	270	0.00	29.782 
16:15	83.4	83.4	85.0	53	64.4	2	7	270	0.00	29.776 
16:20	83.2	83.2	84.5	52	63.7	3	6	248	0.00	29.776 
16:25	83.0	83.0	84.3	52	63.5	3	14	270	0.00	29.776 
16:30	83.4	83.4	85.2	54	65.0	1	5	270	0.00	29.760 
16:35	83.4	83.4	85.0	53	64.4	2	10	248	0.00	29.760 
16:40	83.6	83.6	85.0	52	64.1	2	6	248	0.00	29.760 
16:45	83.8	83.8	85.1	51	63.7	2	5	248	0.00	29.745 
16:50	83.8	83.8	84.9	50	63.1	2	5	270	0.00	29.745 
16:55	84.0	84.0	85.1	50	63.3	2	6	292	0.00	29.745 
17:00	84.0	84.0	85.3	51	63.9	2	7	248	0.00	29.741 
17:05	84.0	84.0	85.8	53	65.0	1	4	292	0.00	29.741 
17:10	83.8	83.8	85.1	51	63.7	2	6	270	0.00	29.741 
17:15	83.8	83.8	85.3	52	64.3	2	6	315	0.00	29.744 
17:20	83.6	83.6	84.8	51	63.5	3	9	248	0.00	29.744 
17:25	83.6	83.6	84.8	51	63.5	3	9	248	0.00	29.744 
17:30	83.8	83.8	84.9	50	63.1	2	5	248	0.00	29.740 
17:35	83.8	83.8	84.7	49	62.6	2	6	270	0.00	29.740 
17:40	83.6	83.6	84.6	50	63.0	1	5	292	0.00	29.740 
17:45	83.4	83.4	84.0	48	61.6	2	5	270	0.00	29.759 
17:50	83.2	83.2	83.4	46	60.2	3	9	292	0.00	29.759 
17:55	83.0	83.0	83.2	46	60.1	3	6	270	0.00	29.759 
18:00	82.8	82.8	83.2	47	60.5	3	10	270	0.00	29.761 
18:05	82.4	82.4	82.9	48	60.7	2	6	248	0.00	29.761 
18:10	82.2	82.2	82.7	48	60.5	2	6	248	0.00	29.761 
18:15	82.2	82.2	82.8	49	61.1	2	7	292	0.00	29.774 
18:20	81.6	81.6	82.2	49	60.6	2	7	248	0.00	29.774 
18:25	81.2	81.2	81.8	49	60.2	2	7	248	0.00	29.774 
18:30	81.1	81.1	81.8	50	60.7	1	6	248	0.00	29.762 
18:35	81.1	81.1	81.8	50	60.7	2	6	270	0.00	29.762 
18:40	80.9	80.9	81.8	51	61.0	2	5	270	0.00	29.762 
18:45	80.7	80.7	81.7	52	61.4	1	5	248	0.00	29.760 
18:50	80.5	80.5	81.6	53	61.8	1	3	292	0.00	29.760 
18:55	80.3	80.3	81.5	54	62.1	1	4	270	0.00	29.760 
19:00	80.3	80.3	81.7	56	63.1	0	3	270	0.00	29.753 
19:05	80.1	80.1	81.5	56	63.0	0	2	270	0.00	29.753 
19:10	79.9	79.9	81.4	57	63.3	0	2	270	0.00	29.753 
19:15	79.9	79.9	81.4	57	63.3	1	4	90	0.00	29.737 
19:20	79.8	79.8	81.4	58	63.7	1	7	90	0.00	29.737 
19:25	79.8	79.8	81.4	58	63.7	1	4	112	0.00	29.737 
19:30	79.6	79.6	81.2	58	63.5	0	2	270	0.00	29.742 
19:35	79.4	79.4	80.9	58	63.3	0	2	292	0.00	29.742 
19:40	79.2	79.2	80.7	57	62.6	1	6	292	0.00	29.742 
19:45	79.0	79.0	80.5	58	62.9	0	2	0	0.00	29.740 
19:50	78.6	78.6	80.0	56	61.6	1	3	0	0.00	29.740 
19:55	78.3	78.3	79.8	56	61.3	1	4	248	0.00	29.740 
20:00	78.1	78.1	79.6	57	61.6	0	1	248	0.00	29.747 
20:05	77.9	77.9	79.5	57	61.4	0	2	248	0.00	29.747 
20:10	77.7	77.7	79.3	57	61.2	0	2	248	0.00	29.747 
20:15	77.7	77.7	79.3	57	61.2	1	2	248	0.00	29.761 
20:20	76.1	76.1	78.0	46	53.8	4	10	292	0.00	29.761 
20:25	74.4	74.4	74.4	47	52.8	4	9	270	0.00	29.761 
20:30	72.5	72.5	72.5	51	53.3	6	11	270	0.00	29.793 
20:35	70.9	70.9	70.9	55	53.9	6	13	270	0.00	29.793 
20:40	69.6	69.6	69.6	61	55.5	6	12	292	0.00	29.793 
20:45	66.6	66.6	66.6	72	57.3	6	12	315	0.06	29.792 
20:50	64.3	64.3	64.3	79	57.6	5	12	270	0.07	29.792 
20:55	63.2	63.2	63.2	84	58.3	4	7	270	0.03	29.792 
21:00	62.6	62.6	62.6	87	58.7	3	7	270	0.03	29.821 
21:05	62.1	62.1	62.1	88	58.5	2	5	270	0.02	29.821 
21:10	61.8	61.8	61.8	89	58.5	2	4	270	0.01	29.821 
21:15	61.6	61.6	61.6	90	58.6	1	3	315	0.02	29.810 
21:20	61.6	61.6	61.6	91	58.9	0	1	315	0.01	29.810 
21:25	61.5	61.5	61.5	91	58.8	0	2	315	0.00	29.810 
21:30	61.6	61.6	61.6	92	59.2	0	1	315	0.01	29.802 
21:35	61.6	61.6	61.6	92	59.2	0	1	315	0.00	29.802 
21:40	61.6	61.6	61.6	92	59.2	0	0	---	0.00	29.802 
21:45	61.8	61.8	61.8	93	59.8	0	2	315	0.00	29.785 
21:50	62.0	62.0	62.0	93	59.9	0	0	---	0.00	29.785 
21:55	61.8	61.8	61.8	93	59.8	0	0	---	0.00	29.785 
22:00	62.0	62.0	62.0	93	59.9	0	2	315	0.00	29.770 
22:05	62.0	62.0	62.0	93	59.9	1	2	315	0.00	29.770 
22:10	62.0	62.0	62.0	94	60.2	0	2	315	0.00	29.770 
22:15	62.0	62.0	62.0	94	60.2	0	2	315	0.00	29.747 
22:20	61.8	61.8	61.8	93	59.8	0	1	315	0.00	29.747 
22:25	61.6	61.6	61.6	93	59.6	0	2	315	0.00	29.747 
22:30	61.5	61.5	61.5	93	59.5	1	2	315	0.00	29.739 
22:35	61.3	61.3	61.3	93	59.3	1	3	112	0.00	29.739 
22:40	61.3	61.3	61.3	93	59.3	1	2	112	0.00	29.739 
22:45	61.2	61.2	61.2	93	59.2	1	3	112	0.00	29.740 
22:50	61.2	61.2	61.2	93	59.2	1	3	112	0.00	29.740 
22:55	61.2	61.2	61.2	93	59.2	1	4	112	0.00	29.740 
23:00	61.2	61.2	61.2	93	59.2	1	4	112	0.00	29.752 
23:05	61.2	61.2	61.2	93	59.2	1	5	90	0.00	29.752 
23:10	61.3	61.3	61.3	93	59.3	1	3	90	0.00	29.752 
23:15	61.3	61.3	61.3	92	59.0	2	4	135	0.00	29.745 
23:20	61.3	61.3	61.3	92	59.0	2	4	90	0.00	29.745 
23:25	61.5	61.5	61.5	92	59.2	1	3	112	0.00	29.745 
23:30	61.5	61.5	61.5	92	59.2	1	3	112	0.00	29.743 
23:35	61.5	61.5	61.5	92	59.2	2	5	135	0.00	29.743 
23:40	61.5	61.5	61.5	92	59.2	2	5	90	0.00	29.743 
23:45	61.6	61.6	61.6	92	59.2	1	3	112	0.00	29.750 
23:50	61.8	61.8	61.8	91	59.1	1	3	112	0.00	29.750 
23:55	61.8	61.8	61.8	91	59.1	1	4	112	0.00	29.750 

CoCoRaHS
IN-AL-39
A2 Web Hosting
Creative Commons License
GoDaddy
search engine by freefind advanced

loaded 2018-11-15 14:00:12 • last modified 2010-11-18 10:43:29
Privacy PolicyDisclaimer
• wx.awcolley.com is powered by PmWiki v.2002016 •
• all content (unless otherwise noted) © 2018 A W Colley